NE46 weather

Greeley Municipal Airport
Greeley, Nebraska, United States

Public forecast

Using degrees Fahrenheit for public forecast. Weather courtesy of forecast.io.

Closest aviation weather report (METAR) to Greeley Municipal Airport

Closest report is Evelyn Sharp Field, 18.7 nm (34.6 km) WNW. Retrieved 2019/10/15 16:53 UTC (35 minutes ago):

KODX 151653Z AUTO 33021G32KT 10SM CLR 11/M01 A3013 RMK AO2 PK WND 34034/1615 SLP209 T01061006

Closest aviation forecast (TAF) to Greeley Municipal Airport

Closest forecast is Central Nebraska Regional Airport, 37.0 nm (68.5 km) SSE. Retrieved 2019/10/15 12:48 UTC (5 hours ago):

TAF KGRI 151146Z 1512/1612 33013G18KT P6SM SKC WS008/35040KT FM151400 33016G21KT P6SM SKC FM151800 33024G31KT P6SM SKC FM152300 34015G22KT P6SM SKC FM160100 32009KT P6SM SKC